createdAt,value
2023-03-12T00:00:40.498Z,3.90
2023-03-12T00:03:09.251Z,3.80
2023-03-12T00:05:39.714Z,3.80
2023-03-12T00:08:08.156Z,3.70
2023-03-12T00:10:36.368Z,3.70
2023-03-12T00:13:04.484Z,3.80
2023-03-12T00:15:32.643Z,3.80
2023-03-12T00:18:00.756Z,3.80
2023-03-12T00:20:28.963Z,3.80
2023-03-12T00:22:58.446Z,3.80
2023-03-12T00:25:26.653Z,3.80
2023-03-12T00:27:54.744Z,3.80
2023-03-12T00:30:23.075Z,3.80
2023-03-12T00:32:51.270Z,3.80
2023-03-12T00:35:19.633Z,3.90
2023-03-12T00:37:47.723Z,4.00
2023-03-12T00:40:17.270Z,4.00
2023-03-12T00:42:45.386Z,4.00
2023-03-12T00:45:13.519Z,4.10
2023-03-12T00:47:41.628Z,4.10
2023-03-12T00:50:10.857Z,4.10
2023-03-12T00:52:39.010Z,4.30
2023-03-12T00:55:07.593Z,4.30
2023-03-12T00:57:37.075Z,4.30
2023-03-12T01:00:09.981Z,4.30
2023-03-12T01:02:38.477Z,4.30
2023-03-12T01:05:08.315Z,4.30
2023-03-12T01:07:36.897Z,4.30
2023-03-12T01:10:05.512Z,4.30
2023-03-12T01:12:33.703Z,4.30
2023-03-12T01:15:03.565Z,4.30
2023-03-12T01:17:31.681Z,4.40
2023-03-12T01:19:59.796Z,4.40
2023-03-12T01:22:28.025Z,4.40
2023-03-12T01:24:56.145Z,4.40
2023-03-12T01:27:24.292Z,4.20
2023-03-12T01:29:52.478Z,4.30
2023-03-12T01:32:22.028Z,4.30
2023-03-12T01:34:50.244Z,4.40
2023-03-12T01:37:18.425Z,4.40
2023-03-12T01:39:46.492Z,4.40
2023-03-12T01:42:14.650Z,4.40
2023-03-12T01:44:54.797Z,4.50
2023-03-12T01:47:25.017Z,4.50
2023-03-12T01:49:57.193Z,4.50
2023-03-12T01:52:28.264Z,4.50
2023-03-12T01:55:00.947Z,4.50
2023-03-12T01:57:33.424Z,4.60
2023-03-12T02:00:05.742Z,4.60
2023-03-12T02:02:36.791Z,4.60
2023-03-12T02:05:12.610Z,4.70
2023-03-12T02:07:40.887Z,4.80
2023-03-12T02:10:09.887Z,4.50
2023-03-12T02:12:38.079Z,4.50
2023-03-12T02:15:07.514Z,4.60
2023-03-12T02:17:37.893Z,4.60
2023-03-12T02:20:16.349Z,4.60
2023-03-12T02:22:50.342Z,4.60
2023-03-12T02:25:31.018Z,4.60
2023-03-12T02:28:01.147Z,4.70
2023-03-12T02:30:31.248Z,4.70
2023-03-12T02:33:01.247Z,4.70
2023-03-12T02:35:31.563Z,4.80
2023-03-12T02:37:59.907Z,4.70
2023-03-12T02:40:36.654Z,4.80
2023-03-12T02:43:15.199Z,4.70
2023-03-12T02:45:44.110Z,4.70
2023-03-12T02:48:19.676Z,4.70
2023-03-12T02:50:49.958Z,4.80
2023-03-12T02:53:23.468Z,4.80
2023-03-12T02:55:57.333Z,4.80
2023-03-12T02:58:34.618Z,4.80
2023-03-12T03:01:20.438Z,4.80
2023-03-12T03:03:49.359Z,4.70
2023-03-12T03:06:19.544Z,4.60
2023-03-12T03:08:48.117Z,4.60
2023-03-12T03:11:26.536Z,4.50
2023-03-12T03:13:58.954Z,4.50
2023-03-12T03:19:12.930Z,4.60
2023-03-12T03:21:41.882Z,4.60
2023-03-12T03:24:10.060Z,4.80
2023-03-12T03:26:45.348Z,4.80
2023-03-12T03:29:16.991Z,4.90
2023-03-12T03:31:45.396Z,4.80
2023-03-12T03:34:16.524Z,4.80
2023-03-12T03:36:44.657Z,4.90
2023-03-12T03:39:12.794Z,4.80
2023-03-12T03:41:52.216Z,4.80
2023-03-12T03:44:23.235Z,4.80
2023-03-12T03:46:51.869Z,4.80
2023-03-12T03:49:22.499Z,4.90
2023-03-12T03:51:51.830Z,5.00
2023-03-12T03:54:20.017Z,5.00
2023-03-12T03:56:54.686Z,5.10
2023-03-12T03:59:22.962Z,5.10
2023-03-12T04:01:54.703Z,5.20
2023-03-12T04:04:25.908Z,5.10
2023-03-12T04:06:56.832Z,5.10
2023-03-12T04:09:27.594Z,5.10
2023-03-12T04:11:59.316Z,5.00
2023-03-12T04:14:27.507Z,5.10
2023-03-12T04:16:55.731Z,5.10
2023-03-12T04:19:33.144Z,5.10
2023-03-12T04:22:12.494Z,5.10
2023-03-12T04:24:42.688Z,5.10
2023-03-12T04:27:13.393Z,5.20
2023-03-12T04:29:43.192Z,5.30
2023-03-12T04:32:12.722Z,5.20
2023-03-12T04:34:40.889Z,5.30
2023-03-12T04:37:13.892Z,5.10
2023-03-12T04:39:44.468Z,5.20
2023-03-12T04:42:15.630Z,5.30
2023-03-12T04:44:47.979Z,5.40
2023-03-12T04:47:19.142Z,5.40
2023-03-12T04:49:52.119Z,5.40
2023-03-12T04:52:22.567Z,5.40
2023-03-12T04:54:53.423Z,5.40
2023-03-12T04:57:40.217Z,5.50
2023-03-12T05:00:15.813Z,5.40
2023-03-12T05:02:44.019Z,5.40
2023-03-12T05:05:13.377Z,5.50
2023-03-12T05:07:41.517Z,5.50
2023-03-12T05:10:10.778Z,5.60
2023-03-12T05:12:43.122Z,5.70
2023-03-12T05:15:12.885Z,5.80
2023-03-12T05:17:43.321Z,5.70
2023-03-12T05:20:17.857Z,5.70
2023-03-12T05:22:48.333Z,5.80
2023-03-12T05:25:17.754Z,5.80
2023-03-12T05:28:03.430Z,6.20
2023-03-12T05:30:32.992Z,6.10
2023-03-12T05:33:03.408Z,6.20
2023-03-12T05:35:34.133Z,6.30
2023-03-12T05:38:04.981Z,6.70
2023-03-12T05:40:35.419Z,7.20
2023-03-12T05:43:12.351Z,7.40
2023-03-12T05:45:42.797Z,7.50
2023-03-12T05:48:14.256Z,7.70
2023-03-12T05:50:46.064Z,7.80
2023-03-12T05:53:17.729Z,7.80
2023-03-12T05:55:48.866Z,7.80
2023-03-12T05:58:24.174Z,7.90
2023-03-12T06:00:53.359Z,8.00
2023-03-12T06:03:29.359Z,8.10
2023-03-12T06:05:59.720Z,8.20
2023-03-12T06:08:28.338Z,8.30
2023-03-12T06:10:56.526Z,8.50
2023-03-12T06:13:28.547Z,8.60
2023-03-12T06:16:05.974Z,8.70
2023-03-12T06:18:37.607Z,8.80
2023-03-12T06:21:12.551Z,8.80
2023-03-12T06:23:42.943Z,8.80
2023-03-12T06:26:19.659Z,8.90
2023-03-12T06:28:50.248Z,8.90
2023-03-12T06:31:21.704Z,8.90
2023-03-12T06:33:53.793Z,8.90
2023-03-12T06:36:26.409Z,9.00
2023-03-12T06:38:58.045Z,9.10
2023-03-12T06:41:30.620Z,9.00
2023-03-12T06:44:06.265Z,9.20
2023-03-12T06:46:38.226Z,9.20
2023-03-12T06:49:07.801Z,9.20
2023-03-12T06:51:36.196Z,9.10
2023-03-12T06:54:04.451Z,9.00
2023-03-12T06:56:36.934Z,9.00
2023-03-12T06:59:09.496Z,9.10
2023-03-12T07:01:39.118Z,9.10
2023-03-12T07:04:07.981Z,9.10
2023-03-12T07:06:36.235Z,9.10
2023-03-12T07:09:07.149Z,9.20
2023-03-12T07:11:36.714Z,9.20
2023-03-12T07:14:15.694Z,9.30
2023-03-12T07:16:46.632Z,9.40
2023-03-12T07:19:14.907Z,9.50
2023-03-12T07:21:43.037Z,9.60
2023-03-12T07:24:12.289Z,9.60
2023-03-12T07:26:41.443Z,9.70
2023-03-12T07:29:13.197Z,9.70
2023-03-12T07:31:41.509Z,9.80
2023-03-12T07:34:18.219Z,9.80
2023-03-12T07:36:49.932Z,9.90
2023-03-12T07:39:19.343Z,9.90
2023-03-12T07:41:52.522Z,9.90
2023-03-12T07:44:23.367Z,10.00
2023-03-12T07:46:53.481Z,10.10
2023-03-12T07:49:22.963Z,10.30
2023-03-12T07:51:51.405Z,10.40
2023-03-12T07:54:30.803Z,10.40
2023-03-12T07:56:59.765Z,10.50
2023-03-12T07:59:39.039Z,10.50
2023-03-12T08:02:07.337Z,10.40
2023-03-12T08:04:39.096Z,10.40
2023-03-12T08:07:10.760Z,10.60
2023-03-12T08:09:40.566Z,10.70
2023-03-12T08:12:17.856Z,10.70
2023-03-12T08:14:52.532Z,10.70
2023-03-12T08:17:23.937Z,10.70
2023-03-12T08:19:52.071Z,10.60
2023-03-12T08:22:30.479Z,10.50
2023-03-12T08:25:01.570Z,10.50
2023-03-12T08:27:31.328Z,10.60
2023-03-12T08:30:02.119Z,10.60
2023-03-12T08:32:39.323Z,10.70
2023-03-12T08:35:09.248Z,10.80
2023-03-12T08:37:38.045Z,10.80
2023-03-12T08:40:16.881Z,10.90
2023-03-12T08:42:48.401Z,11.10
2023-03-12T08:45:25.323Z,11.10
2023-03-12T08:47:56.043Z,11.10
2023-03-12T08:50:29.092Z,11.30
2023-03-12T08:52:58.546Z,11.30
2023-03-12T08:55:30.614Z,11.50
2023-03-12T08:58:08.021Z,11.60
2023-03-12T09:00:39.766Z,11.60
2023-03-12T09:03:08.669Z,11.60
2023-03-12T09:05:37.264Z,11.70
2023-03-12T09:08:07.267Z,11.50
2023-03-12T09:10:37.834Z,11.30
2023-03-12T09:13:08.962Z,11.30
2023-03-12T09:15:41.231Z,11.40
2023-03-12T09:18:09.397Z,11.40
2023-03-12T09:20:41.414Z,11.40
2023-03-12T09:23:11.094Z,11.40
2023-03-12T09:25:44.936Z,11.30
2023-03-12T09:28:17.144Z,11.40
2023-03-12T09:30:46.751Z,11.50
2023-03-12T09:33:16.904Z,11.50
2023-03-12T09:38:30.949Z,11.50
2023-03-12T09:41:07.843Z,11.50
2023-03-12T09:43:41.400Z,11.60
2023-03-12T09:46:26.095Z,11.80
2023-03-12T09:49:01.628Z,11.90
2023-03-12T09:51:36.941Z,11.90
2023-03-12T09:54:08.406Z,12.30
2023-03-12T09:56:39.947Z,12.40
2023-03-12T09:59:12.840Z,12.50
2023-03-12T10:01:53.083Z,12.40
2023-03-12T10:04:58.596Z,12.30
2023-03-12T10:07:41.656Z,12.40
2023-03-12T10:10:37.886Z,12.40
2023-03-12T10:13:18.527Z,12.50
2023-03-12T10:15:56.696Z,12.40
2023-03-12T10:18:45.249Z,12.50
2023-03-12T10:21:23.471Z,12.60
2023-03-12T10:24:18.028Z,12.80
2023-03-12T10:26:52.687Z,12.80
2023-03-12T10:29:25.170Z,12.70
2023-03-12T10:31:59.144Z,12.40
2023-03-12T10:34:43.690Z,12.40
2023-03-12T10:37:20.867Z,12.20
2023-03-12T10:39:51.677Z,12.10
2023-03-12T10:42:24.512Z,11.90
2023-03-12T10:44:56.700Z,11.90
2023-03-12T10:47:35.329Z,12.10
2023-03-12T10:50:25.032Z,12.10
2023-03-12T10:52:55.405Z,12.40
2023-03-12T10:55:27.483Z,12.40
2023-03-12T10:57:58.031Z,12.70
2023-03-12T11:00:30.034Z,12.70
2023-03-12T11:03:04.699Z,12.70
2023-03-12T11:05:39.303Z,12.80
2023-03-12T11:08:23.483Z,12.80
2023-03-12T11:10:53.096Z,12.80
2023-03-12T11:13:39.538Z,12.90
2023-03-12T11:16:26.847Z,12.80
2023-03-12T11:19:07.557Z,12.80
2023-03-12T11:21:41.103Z,12.70
2023-03-12T11:24:16.192Z,12.80
2023-03-12T11:26:56.237Z,12.90
2023-03-12T11:29:33.780Z,13.30
2023-03-12T11:32:07.784Z,13.50
2023-03-12T11:34:39.486Z,13.80
2023-03-12T11:37:29.249Z,13.50
2023-03-12T11:40:14.842Z,13.90
2023-03-12T11:43:01.129Z,14.00
2023-03-12T11:45:44.284Z,14.40
2023-03-12T11:48:23.241Z,14.80
2023-03-12T11:51:23.672Z,14.60
2023-03-12T11:54:29.476Z,14.10
2023-03-12T11:57:04.112Z,14.10
2023-03-12T12:00:05.234Z,14.30
2023-03-12T12:03:08.878Z,14.50
2023-03-12T12:05:49.375Z,14.90
2023-03-12T12:08:38.451Z,15.10
2023-03-12T12:11:17.916Z,15.30
2023-03-12T12:14:06.155Z,15.10
2023-03-12T12:17:25.937Z,15.10
2023-03-12T12:20:19.775Z,15.00
2023-03-12T12:23:05.460Z,15.10
2023-03-12T12:26:15.768Z,15.50
2023-03-12T12:29:20.818Z,15.50
2023-03-12T12:32:03.122Z,15.60
2023-03-12T12:35:09.199Z,16.00
2023-03-12T12:37:50.902Z,15.90
2023-03-12T12:40:26.005Z,15.90
2023-03-12T12:43:21.500Z,15.80
2023-03-12T12:45:52.514Z,15.80
2023-03-12T12:48:28.879Z,15.80
2023-03-12T12:51:03.485Z,15.90
2023-03-12T12:53:58.129Z,16.00
2023-03-12T12:56:34.298Z,15.80
2023-03-12T12:59:25.100Z,15.80
2023-03-12T13:01:55.905Z,15.50
2023-03-12T13:04:29.691Z,15.50
2023-03-12T13:07:01.500Z,15.50
2023-03-12T13:09:44.446Z,15.30
2023-03-12T13:12:21.013Z,15.20
2023-03-12T13:14:50.871Z,15.40
2023-03-12T13:17:28.788Z,15.30
2023-03-12T13:20:11.093Z,15.30
2023-03-12T13:23:04.897Z,15.50
2023-03-12T13:25:47.831Z,15.30
2023-03-12T13:29:11.447Z,15.30
2023-03-12T13:31:42.026Z,14.80
2023-03-12T13:34:32.951Z,14.70
2023-03-12T13:37:03.989Z,14.90
2023-03-12T13:39:33.640Z,15.10
2023-03-12T13:42:03.394Z,15.30
2023-03-12T13:44:38.286Z,15.30
2023-03-12T13:47:19.147Z,15.40
2023-03-12T13:49:54.609Z,15.50
2023-03-12T13:52:27.752Z,14.70
2023-03-12T13:55:02.561Z,14.60
2023-03-12T13:57:41.221Z,14.80
2023-03-12T14:00:19.586Z,14.80
2023-03-12T14:02:52.993Z,15.00
2023-03-12T14:05:22.250Z,15.20
2023-03-12T14:08:12.721Z,15.70
2023-03-12T14:11:04.302Z,15.70
2023-03-12T14:13:48.322Z,15.50
2023-03-12T14:16:24.239Z,15.90
2023-03-12T14:18:54.008Z,16.20
2023-03-12T14:21:25.218Z,17.00
2023-03-12T14:23:59.276Z,17.70
2023-03-12T14:26:29.805Z,17.20
2023-03-12T14:29:02.482Z,16.80
2023-03-12T14:31:32.272Z,16.90
2023-03-12T14:34:06.848Z,15.60
2023-03-12T14:36:40.383Z,16.10
2023-03-12T14:39:24.887Z,16.80
2023-03-12T14:41:56.958Z,17.30
2023-03-12T14:44:26.748Z,16.50
2023-03-12T14:46:59.507Z,16.40
2023-03-12T14:49:28.416Z,16.30
2023-03-12T14:51:57.712Z,16.00
2023-03-12T14:54:29.413Z,15.70
2023-03-12T14:56:57.668Z,15.80
2023-03-12T14:59:29.296Z,16.40
2023-03-12T15:02:01.967Z,16.50
2023-03-12T15:04:31.578Z,16.60
2023-03-12T15:07:04.544Z,16.40
2023-03-12T15:09:37.024Z,15.80
2023-03-12T15:12:07.820Z,15.70
2023-03-12T15:14:40.753Z,15.60
2023-03-12T15:17:09.840Z,15.60
2023-03-12T15:19:40.719Z,15.40
2023-03-12T15:22:14.879Z,15.10
2023-03-12T15:24:44.436Z,15.00
2023-03-12T15:27:31.271Z,14.80
2023-03-12T15:30:01.373Z,14.70
2023-03-12T15:32:31.977Z,14.80
2023-03-12T15:35:00.672Z,15.00
2023-03-12T15:37:38.231Z,14.90
2023-03-12T15:40:18.779Z,14.80
2023-03-12T15:42:49.113Z,14.80
2023-03-12T15:45:21.296Z,14.80
2023-03-12T15:47:50.748Z,14.80
2023-03-12T15:50:22.723Z,14.80
2023-03-12T15:53:06.014Z,14.80
2023-03-12T15:55:36.510Z,14.90
2023-03-12T15:58:24.981Z,15.10
2023-03-12T16:00:53.928Z,15.10
2023-03-12T16:03:23.145Z,15.00
2023-03-12T16:05:51.963Z,15.10
2023-03-12T16:08:22.820Z,15.10
2023-03-12T16:10:53.122Z,15.10
2023-03-12T16:13:26.560Z,14.80
2023-03-12T16:15:54.893Z,14.40
2023-03-12T16:18:23.943Z,14.30
2023-03-12T16:20:54.018Z,14.40
2023-03-12T16:23:22.117Z,14.30
2023-03-12T16:25:54.498Z,14.30
2023-03-12T16:28:24.539Z,14.30
2023-03-12T16:30:53.340Z,14.10
2023-03-12T16:33:23.952Z,14.10
2023-03-12T16:35:52.538Z,14.00
2023-03-12T16:38:20.655Z,14.00
2023-03-12T16:40:51.881Z,14.10
2023-03-12T16:43:22.352Z,14.00
2023-03-12T16:45:51.835Z,13.80
2023-03-12T16:48:21.736Z,13.80
2023-03-12T16:50:51.054Z,13.70
2023-03-12T16:53:19.721Z,13.50
2023-03-12T16:55:52.453Z,13.50
2023-03-12T16:58:22.423Z,13.50
2023-03-12T17:00:51.784Z,13.40
2023-03-12T17:03:29.345Z,13.30
2023-03-12T17:05:57.563Z,13.20
2023-03-12T17:08:25.896Z,13.20
2023-03-12T17:10:56.403Z,13.10
2023-03-12T17:13:26.847Z,13.00
2023-03-12T17:15:55.643Z,12.90
2023-03-12T17:18:24.116Z,12.80
2023-03-12T17:20:52.717Z,12.80
2023-03-12T17:23:20.947Z,12.70
2023-03-12T17:25:49.122Z,12.60
2023-03-12T17:28:18.652Z,12.60
2023-03-12T17:30:47.455Z,12.50
2023-03-12T17:33:17.424Z,12.40
2023-03-12T17:35:45.874Z,12.40
2023-03-12T17:38:14.364Z,12.30
2023-03-12T17:40:43.053Z,12.30
2023-03-12T17:43:11.594Z,12.30
2023-03-12T17:45:42.168Z,12.30
2023-03-12T17:48:10.456Z,12.30
2023-03-12T17:50:38.748Z,12.30
2023-03-12T17:53:06.905Z,12.30
2023-03-12T17:55:35.889Z,12.30
2023-03-12T17:58:06.116Z,12.20
2023-03-12T18:00:34.419Z,12.00
2023-03-12T18:03:04.455Z,12.00
2023-03-12T18:05:32.745Z,11.90
2023-03-12T18:08:00.912Z,11.90
2023-03-12T18:10:29.144Z,11.80
2023-03-12T18:12:57.218Z,11.80
2023-03-12T18:15:25.283Z,11.90
2023-03-12T18:17:56.502Z,11.90
2023-03-12T18:20:37.662Z,12.00
2023-03-12T18:23:07.039Z,12.00
2023-03-12T18:25:35.491Z,12.00
2023-03-12T18:28:03.616Z,12.00
2023-03-12T18:30:31.716Z,12.00
2023-03-12T18:33:00.108Z,12.00
2023-03-12T18:35:30.598Z,12.00
2023-03-12T18:37:58.861Z,12.00
2023-03-12T18:40:27.667Z,12.00
2023-03-12T18:42:58.732Z,12.00
2023-03-12T18:45:27.084Z,11.90
2023-03-12T18:47:55.354Z,11.90
2023-03-12T18:50:23.524Z,11.80
2023-03-12T18:52:53.014Z,11.90
2023-03-12T18:55:21.135Z,11.90
2023-03-12T18:57:49.229Z,11.90
2023-03-12T19:00:19.253Z,11.80
2023-03-12T19:02:48.389Z,11.90
2023-03-12T19:05:17.174Z,11.90
2023-03-12T19:07:45.380Z,11.90
2023-03-12T19:10:16.164Z,11.90
2023-03-12T19:12:53.752Z,11.80
2023-03-12T19:15:24.204Z,11.80
2023-03-12T19:17:52.721Z,11.80
2023-03-12T19:20:21.189Z,11.80
2023-03-12T19:22:49.441Z,11.90
2023-03-12T19:25:20.103Z,11.90
2023-03-12T19:27:48.416Z,11.90
2023-03-12T19:30:17.424Z,12.00
2023-03-12T19:32:45.548Z,12.00
2023-03-12T19:35:15.372Z,11.90
2023-03-12T19:37:43.923Z,12.00
2023-03-12T19:40:13.380Z,12.00
2023-03-12T19:42:42.977Z,12.00
2023-03-12T19:45:13.921Z,11.90
2023-03-12T19:47:42.480Z,11.90
2023-03-12T19:50:12.635Z,12.00
2023-03-12T19:52:40.816Z,12.10
2023-03-12T19:55:11.076Z,12.10
2023-03-12T19:57:39.508Z,12.00
2023-03-12T20:00:12.238Z,12.00
2023-03-12T20:02:40.814Z,11.90
2023-03-12T20:05:10.182Z,11.90
2023-03-12T20:07:38.514Z,12.00
2023-03-12T20:10:09.933Z,12.00
2023-03-12T20:12:38.625Z,11.90
2023-03-12T20:15:09.575Z,11.90
2023-03-12T20:17:37.720Z,11.90
2023-03-12T20:20:09.025Z,11.90
2023-03-12T20:22:37.267Z,11.80
2023-03-12T20:25:06.384Z,11.90
2023-03-12T20:27:35.308Z,11.90
2023-03-12T20:30:04.644Z,11.90
2023-03-12T20:32:34.537Z,11.90
2023-03-12T20:35:02.710Z,11.90
2023-03-12T20:37:30.870Z,11.90
2023-03-12T20:39:58.985Z,11.90
2023-03-12T20:42:27.220Z,11.90
2023-03-12T20:44:55.353Z,11.90
2023-03-12T20:47:24.457Z,11.90
2023-03-12T20:49:53.934Z,11.90
2023-03-12T20:52:22.048Z,11.90
2023-03-12T20:54:50.169Z,11.80
2023-03-12T20:57:18.339Z,11.80
2023-03-12T20:59:46.441Z,11.80
2023-03-12T21:02:15.521Z,11.90
2023-03-12T21:04:44.360Z,11.90
2023-03-12T21:07:13.977Z,11.90
2023-03-12T21:09:42.050Z,11.90
2023-03-12T21:12:10.267Z,11.90
2023-03-12T21:14:39.925Z,11.90
2023-03-12T21:17:09.026Z,11.90
2023-03-12T21:19:37.278Z,11.90
2023-03-12T21:22:05.375Z,11.90
2023-03-12T21:24:35.435Z,11.90
2023-03-12T21:27:03.665Z,11.90
2023-03-12T21:29:31.760Z,11.80
2023-03-12T21:31:59.902Z,11.80
2023-03-12T21:34:30.848Z,11.80
2023-03-12T21:36:59.004Z,11.80
2023-03-12T21:39:27.455Z,11.90
2023-03-12T21:41:57.130Z,11.90
2023-03-12T21:44:25.297Z,11.90
2023-03-12T21:46:53.452Z,12.00
2023-03-12T21:49:22.922Z,11.90
2023-03-12T21:51:51.187Z,11.90
2023-03-12T21:54:19.303Z,11.90
2023-03-12T21:56:47.409Z,11.80
2023-03-12T21:59:16.924Z,11.80
2023-03-12T22:01:45.150Z,11.80
2023-03-12T22:04:13.305Z,11.80
2023-03-12T22:06:42.446Z,11.80
2023-03-12T22:09:10.630Z,11.80
2023-03-12T22:11:38.728Z,11.80
2023-03-12T22:14:06.824Z,11.70
2023-03-12T22:16:36.627Z,11.80
2023-03-12T22:19:04.912Z,11.90
2023-03-12T22:21:33.091Z,12.00
2023-03-12T22:24:02.436Z,12.00
2023-03-12T22:26:31.136Z,12.00
2023-03-12T22:29:01.253Z,11.90
2023-03-12T22:31:31.086Z,11.90
2023-03-12T22:34:00.763Z,11.80
2023-03-12T22:36:28.853Z,11.90
2023-03-12T22:38:56.978Z,11.80
2023-03-12T22:41:27.137Z,11.80
2023-03-12T22:43:56.536Z,11.80
2023-03-12T22:46:27.481Z,11.80
2023-03-12T22:48:57.140Z,11.90
2023-03-12T22:51:27.521Z,11.90
2023-03-12T22:53:58.885Z,12.00
2023-03-12T22:56:27.312Z,11.90
2023-03-12T22:58:56.850Z,12.00
2023-03-12T23:01:25.485Z,12.00
2023-03-12T23:03:54.158Z,12.10
2023-03-12T23:06:24.386Z,12.10
2023-03-12T23:08:55.128Z,12.00
2023-03-12T23:11:25.486Z,11.90
2023-03-12T23:13:54.731Z,12.00
2023-03-12T23:16:24.814Z,12.10
2023-03-12T23:18:53.149Z,12.10
2023-03-12T23:21:23.020Z,12.10
2023-03-12T23:23:51.578Z,12.10
2023-03-12T23:26:23.924Z,12.10
2023-03-12T23:28:53.550Z,12.10
2023-03-12T23:31:22.608Z,12.00
2023-03-12T23:33:50.929Z,12.00
2023-03-12T23:36:21.264Z,12.00
2023-03-12T23:38:50.719Z,12.00
2023-03-12T23:41:22.099Z,12.00
2023-03-12T23:43:50.888Z,12.00
2023-03-12T23:46:19.742Z,11.90
2023-03-12T23:48:48.356Z,11.90
2023-03-12T23:51:18.599Z,11.80
2023-03-12T23:53:49.167Z,11.90
2023-03-12T23:56:19.177Z,11.80
2023-03-12T23:58:49.853Z,11.90
